首页
METAR-TAF:

METAR-TAF

机场 :

邁亞密國際機場

迈阿密, 佛罗里达州, 美国

纬度: 25-47-26N, 经度: 080-18-59W, 海拔: 3米

当前天气观测

该预报发布于1小时和0分钟前的18:53 UTC
风速6节,风向多变
温度 27°C
湿度 79%
气压 1014 hPa
能見度: 16.1公里
散云层高于2100英尺
多云层高于15000英尺

METAR: KMIA 151853Z VRB06KT 10SM SCT021 BKN150 27/23 A2994 RMK AO2 SLP139 CB DSNT E-SE MOV NE T02720233

时间: 14:53 (19:53 UTC)

预报

该预报发布于2小时和16分钟前的17:37 UTC
预报有效从15日的 18点(UTC)到 16日的 24点(UTC)
风速8节,风向西北
能見度: 10公里
散云层高于2500英尺
多云层高于5000英尺
附近有阵雨
从 16日的 0100点(UTC)
风速6节,风向西北
能見度: 10公里
散云层高于2500英尺
多云层高于15000英尺
从 16日的 0600点(UTC)
风速10节,风向北转西北
能見度: 10公里
少量云层高于1500英尺
散云层高于2500英尺
多云层高于5000英尺
从 16日的 1800点(UTC)
风速10节,风向
能見度: 10公里
散云层高于2500英尺
多云层高于5000英尺

TAF: KMIA 151737Z 1518/1624 31008KT P6SM VCSH SCT025 BKN050 FM160100 32006KT P6SM SCT025 BKN150 FM160600 34010KT P6SM FEW015 SCT025 BKN050 FM161800 01010KT P6SM SCT025 BKN050

超过4000个机场的气象观测和天气预报(METAR&TAF报告)。

可查询的气象台以黄色和红色小点在地图上表示。

将鼠标移到小点上方,可查看气象台名称。

然后点击查看天气观测和预报。

如需切换地图:点击带黑十字的绿色按钮放大地图;点击带横线的绿色按钮缩小地图;或者点击绿色箭头查看邻近地区的地图。


METAR-TAF: